Time;durP1;ratioP1;P1;durP2;ratioP2;P2;SDS_P1;SDS_P2;PMS_P1;PMS_P2;Temp;Humidity;BMP_temperature;BMP_pressure;BME280_temperature;BME280_humidity;BME280_pressure;Samples;Min_cycle;Max_cycle;Signal;HPM_P1;HPM_P2
2022/08/18 00:00:57;;;;;;;11.90;10.70;;;;;;;24.32;53.24;100523.69;1574089;88;21141;-78
2022/08/18 00:03:43;;;;;;;11.63;10.63;;;;;;;24.29;53.27;100520.80;1584553;88;21722;-79
2022/08/18 00:06:28;;;;;;;;;;;;;;;24.25;53.39;100521.98;1584238;88;20987;-79
2022/08/18 00:09:12;;;;;;;14.75;10.70;;;;;;;24.21;53.75;100528.42;1578355;88;20115;-79
2022/08/18 00:12:00;;;;;;;14.10;10.53;;;;;;;24.18;53.48;100523.36;1579608;88;21002;-79
2022/08/18 00:14:47;;;;;;;12.15;11.03;;;;;;;24.14;53.60;100520.58;1584706;88;20958;-79
2022/08/18 00:17:33;;;;;;;14.78;11.38;;;;;;;24.06;54.16;100517.19;1584386;88;20990;-79
2022/08/18 00:20:22;;;;;;;14.38;10.70;;;;;;;24.06;54.16;100517.19;1587184;88;20982;-79
2022/08/18 00:23:07;;;;;;;16.67;11.53;;;;;;;24.05;53.93;100527.86;1584653;88;20987;-79
2022/08/18 00:25:52;;;;;;;13.18;11.88;;;;;;;24.02;54.07;100526.28;1583929;88;20939;-79
2022/08/18 00:28:37;;;;;;;20.30;13.22;;;;;;;24.00;54.19;100525.55;1568966;88;21030;-79
2022/08/18 00:31:22;;;;;;;17.27;12.90;;;;;;;23.99;54.26;100523.03;1577749;88;20950;-79
2022/08/18 00:34:07;;;;;;;13.95;12.18;;;;;;;23.97;54.43;100520.98;1585335;88;20982;-79
2022/08/18 00:36:52;;;;;;;14.70;13.18;;;;;;;23.95;54.57;100518.92;1591977;88;20922;-79
2022/08/18 00:39:37;;;;;;;15.32;13.50;;;;;;;23.93;54.65;100522.16;1579004;88;21438;-79
2022/08/18 00:42:26;;;;;;;21.50;13.60;;;;;;;23.87;54.81;100519.52;1582542;88;20962;-79
2022/08/18 00:45:16;;;;;;;15.15;13.15;;;;;;;23.86;54.93;100523.11;1576058;88;20991;-79
2022/08/18 00:48:03;;;;;;;17.02;14.33;;;;;;;23.83;55.08;100519.38;1576580;88;21601;-79
2022/08/18 00:50:56;;;;;;;17.23;13.20;;;;;;;23.83;55.20;100519.84;1582142;88;21074;-79
2022/08/18 00:53:49;;;;;;;18.85;13.98;;;;;;;23.81;55.30;100523.92;1575341;88;21119;-79
2022/08/18 00:56:45;;;;;;;15.90;13.70;;;;;;;23.81;55.42;100521.75;1582906;88;21608;-79
2022/08/18 00:59:54;;;;;;;19.55;14.60;;;;;;;23.80;55.51;100520.91;1592729;87;21079;-79
2022/08/18 01:02:45;;;;;;;17.17;13.53;;;;;;;23.78;55.60;100524.62;1593242;88;21625;-79
2022/08/18 01:05:40;;;;;;;17.98;14.50;;;;;;;23.77;55.72;100518.49;1603340;88;21654;-79
2022/08/18 01:08:25;;;;;;;18.45;13.48;;;;;;;23.77;55.86;100521.13;1565363;85;5001358;-79
2022/08/18 01:11:10;;;;;;;15.40;14.00;;;;;;;23.75;55.94;100518.60;1656448;85;21396;-79
2022/08/18 01:13:57;;;;;;;16.77;15.05;;;;;;;23.69;56.03;100521.69;1648618;85;21106;-79
2022/08/18 01:23:07;;;;;;;16.65;14.70;;;;;;;23.62;56.37;100524.40;1641005;85;22110;-79
2022/08/18 01:25:59;;;;;;;16.50;14.75;;;;;;;23.59;56.50;100531.69;1647979;85;21124;-79
2022/08/18 01:28:45;;;;;;;16.40;14.63;;;;;;;23.58;56.61;100540.56;1647625;85;21034;-79
2022/08/18 01:31:38;;;;;;;17.67;15.13;;;;;;;23.57;56.74;100537.56;1649935;85;21136;-79
2022/08/18 01:34:27;;;;;;;16.17;14.43;;;;;;;23.59;56.78;100532.53;1660001;85;20986;-79
2022/08/18 01:37:12;;;;;;;18.20;14.73;;;;;;;23.60;56.87;100534.22;1639414;85;21097;-79
2022/08/18 01:39:57;;;;;;;15.70;14.03;;;;;;;23.60;56.93;100535.55;1651661;85;21682;-79
2022/08/18 01:42:44;;;;;;;15.75;13.85;;;;;;;23.55;57.03;100531.55;1638183;85;21550;-79
2022/08/18 01:45:32;;;;;;;14.75;13.22;;;;;;;23.51;57.16;100528.25;1646105;85;21117;-79
2022/08/18 01:48:16;;;;;;;17.20;15.10;;;;;;;23.47;57.24;100524.14;1638755;85;21537;-79
2022/08/18 01:51:06;;;;;;;18.20;13.97;;;;;;;23.43;57.33;100520.03;1648810;84;21093;-79
2022/08/18 01:53:51;;;;;;;15.83;14.33;;;;;;;23.40;57.43;100507.89;1649730;85;22121;-78
2022/08/18 01:56:36;;;;;;;16.52;14.45;;;;;;;23.39;57.57;100500.95;1649636;85;21062;-78
2022/08/18 01:59:21;;;;;;;15.38;13.78;;;;;;;23.40;57.62;100497.34;1656339;85;21054;-78
2022/08/18 02:02:08;;;;;;;15.60;13.90;;;;;;;23.40;57.72;100494.70;1646275;85;21090;-78
2022/08/18 02:04:59;;;;;;;16.73;13.88;;;;;;;23.39;57.84;100494.84;1652261;85;21050;-79
2022/08/18 02:07:44;;;;;;;16.32;14.73;;;;;;;23.28;57.79;100478.92;1643701;85;21688;-79
2022/08/18 02:10:29;;;;;;;15.85;13.93;;;;;;;23.36;57.98;100500.33;1645527;85;20929;-79
2022/08/18 02:13:15;;;;;;;19.27;15.08;;;;;;;23.31;58.08;100503.30;1644689;85;20955;-79
2022/08/18 02:16:01;;;;;;;19.32;14.78;;;;;;;23.28;58.20;100503.98;1639862;85;21461;-79
2022/08/18 02:18:46;;;;;;;;;;;;;;;23.25;58.27;100501.09;1656270;84;20911;-79
2022/08/18 02:21:31;;;;;;;17.75;13.80;;;;;;;23.24;58.68;100510.44;1660902;85;20104;-79
2022/08/18 02:24:16;;;;;;;15.30;13.80;;;;;;;23.21;58.37;100503.58;1655020;85;20959;-79
2022/08/18 02:27:01;;;;;;;15.35;13.95;;;;;;;23.21;58.45;100510.65;1648503;85;21893;-79
2022/08/18 02:29:46;;;;;;;16.25;14.15;;;;;;;23.18;58.55;100501.63;1647622;85;20927;-79
2022/08/18 02:32:32;;;;;;;17.52;15.63;;;;;;;23.15;58.64;100503.16;1653577;85;21522;-79
2022/08/18 02:35:17;;;;;;;14.65;13.20;;;;;;;23.09;58.71;100503.95;1649756;85;20922;-79
2022/08/18 02:38:06;;;;;;;16.52;14.87;;;;;;;23.04;58.85;100503.43;1650625;85;21440;-79
2022/08/18 02:40:57;;;;;;;15.28;13.68;;;;;;;23.04;58.94;100499.95;1655954;85;20954;-79
2022/08/18 02:43:41;;;;;;;15.10;13.72;;;;;;;23.00;59.01;100501.95;1642843;85;21483;-79
2022/08/18 02:46:27;;;;;;;18.27;14.65;;;;;;;22.93;59.10;100500.69;1653901;85;20938;-79
2022/08/18 02:49:12;;;;;;;15.35;13.75;;;;;;;22.89;59.15;100502.33;1653840;85;20941;-80
2022/08/18 02:51:58;;;;;;;16.50;14.28;;;;;;;22.86;59.26;100498.62;1654942;85;20997;-79
2022/08/18 02:54:43;;;;;;;16.27;14.80;;;;;;;22.83;59.33;100495.72;1649701;85;21061;-79
2022/08/18 02:57:29;;;;;;;15.63;14.18;;;;;;;22.84;59.39;100500.52;1642099;85;21077;-79
2022/08/18 03:00:18;;;;;;;18.23;13.83;;;;;;;22.82;59.49;100503.25;1651902;85;21688;-79
2022/08/18 03:03:03;;;;;;;17.95;14.63;;;;;;;22.81;59.56;100500.25;1656160;84;21209;-79
2022/08/18 03:05:48;;;;;;;16.57;14.33;;;;;;;22.77;59.61;100500.90;1659809;84;21053;-79
2022/08/18 03:08:33;;;;;;;16.20;14.60;;;;;;;22.72;59.70;100499.53;1665092;84;21120;-79
2022/08/18 03:11:22;;;;;;;16.85;15.10;;;;;;;22.68;59.80;100500.21;1655386;84;21015;-79
2022/08/18 03:14:08;;;;;;;17.75;16.10;;;;;;;22.68;59.89;100498.89;1662862;85;21048;-79
2022/08/18 03:16:54;;;;;;;16.45;14.83;;;;;;;22.66;59.96;100491.56;1661874;84;21054;-79
2022/08/18 03:19:38;;;;;;;16.60;14.90;;;;;;;22.63;60.04;100494.87;1661113;84;21403;-80
2022/08/18 03:22:24;;;;;;;17.70;16.00;;;;;;;22.59;60.09;100494.24;1658310;84;21620;-79
2022/08/18 03:25:09;;;;;;;17.98;16.32;;;;;;;22.57;60.22;100497.45;1660531;84;21057;-79
2022/08/18 03:27:54;;;;;;;21.33;15.98;;;;;;;22.55;60.25;100498.50;1651846;84;21538;-79
2022/08/18 03:30:39;;;;;;;22.90;15.55;;;;;;;22.56;60.32;100501.52;1651969;84;21076;-79
2022/08/18 03:33:24;;;;;;;19.05;15.50;;;;;;;22.52;60.42;100499.55;1657669;84;21127;-79
2022/08/18 03:36:17;;;;;;;17.30;15.60;;;;;;;22.51;60.45;100508.88;1650885;84;21013;-79
2022/08/18 03:39:07;;;;;;;18.98;15.58;;;;;;;22.46;60.57;100510.03;1660498;84;21077;-79
2022/08/18 03:41:53;;;;;;;19.45;16.12;;;;;;;22.44;60.70;100501.86;1657437;84;21073;-79
2022/08/18 03:44:38;;;;;;;16.15;14.20;;;;;;;22.44;60.75;100511.08;1660370;84;27292;-80
2022/08/18 03:47:23;;;;;;;16.60;15.20;;;;;;;22.44;60.85;100505.81;1660629;84;20935;-80
2022/08/18 03:50:08;;;;;;;17.37;15.72;;;;;;;22.44;60.90;100511.92;1658056;84;20954;-80
2022/08/18 03:52:53;;;;;;;18.65;15.95;;;;;;;22.47;60.99;100517.47;1656613;84;20969;-80
2022/08/18 03:55:40;;;;;;;18.07;15.28;;;;;;;22.46;61.01;100515.30;1664705;84;20983;-80
2022/08/18 03:58:25;;;;;;;18.50;16.60;;;;;;;22.44;61.13;100513.72;1643087;84;21518;-80
2022/08/18 04:01:14;;;;;;;17.40;15.58;;;;;;;22.46;61.26;100521.89;1655338;84;21829;-80
2022/08/18 04:04:03;;;;;;;21.82;16.95;;;;;;;22.47;61.27;100521.42;1642707;85;20966;-80
2022/08/18 04:06:53;;;;;;;21.55;16.82;;;;;;;22.48;61.35;100520.95;1649874;85;20903;-80
2022/08/18 04:09:38;;;;;;;17.95;16.27;;;;;;;22.48;61.43;100524.90;1643381;85;20915;-80
2022/08/18 04:12:23;;;;;;;20.80;15.80;;;;;;;22.49;61.49;100523.48;1652213;84;20923;-80
2022/08/18 04:15:09;;;;;;;19.07;17.20;;;;;;;22.50;61.59;100524.32;1641548;85;20942;-80
2022/08/18 04:17:59;;;;;;;22.20;16.70;;;;;;;22.54;61.67;100524.48;1649395;84;20931;-80
2022/08/18 04:20:44;;;;;;;18.52;16.65;;;;;;;22.57;61.71;100519.86;1649977;85;20914;-80
2022/08/18 04:23:29;;;;;;;19.02;17.10;;;;;;;22.58;61.81;100525.50;1642786;84;21477;-80
2022/08/18 04:26:17;;;;;;;19.77;17.70;;;;;;;22.60;61.87;100528.03;1650890;85;20958;-80
2022/08/18 04:29:02;;;;;;;22.45;17.67;;;;;;;22.62;61.92;100536.68;1645548;85;20915;-79
2022/08/18 04:31:50;;;;;;;19.82;17.77;;;;;;;22.63;62.05;100533.09;1651689;85;21065;-79
2022/08/18 04:34:35;;;;;;;23.83;17.65;;;;;;;22.66;62.12;100532.89;1652725;84;21010;-79
2022/08/18 04:37:21;;;;;;;19.30;17.40;;;;;;;22.71;62.16;100537.38;1639740;85;20976;-79
2022/08/18 04:40:08;;;;;;;25.02;18.37;;;;;;;22.74;62.21;100537.17;1644426;85;21300;-79
2022/08/18 04:42:53;;;;;;;21.75;18.98;;;;;;;22.77;62.26;100540.45;1648810;85;21557;-79
2022/08/18 04:45:38;;;;;;;20.90;18.00;;;;;;;22.78;62.36;100533.38;1642450;85;20990;-79
2022/08/18 04:48:23;;;;;;;19.23;17.27;;;;;;;22.82;62.41;100526.98;1651633;86;21078;-79
2022/08/18 04:51:16;;;;;;;20.50;17.98;;;;;;;22.85;62.49;100531.20;1647358;86;21062;-79
2022/08/18 04:54:01;;;;;;;33.50;19.82;;;;;;;22.88;62.58;100528.33;1646719;85;20940;-79
2022/08/18 04:56:46;;;;;;;25.23;19.00;;;;;;;22.92;62.65;100527.17;1652266;85;21042;-79
2022/08/18 04:59:31;;;;;;;20.32;18.15;;;;;;;22.98;62.73;100528.91;1637225;85;21063;-79
2022/08/18 05:02:19;;;;;;;21.87;18.07;;;;;;;23.04;62.74;100527.64;1652218;84;21105;-79
2022/08/18 05:05:07;;;;;;;21.62;18.85;;;;;;;23.09;62.83;100531.66;1652947;84;21116;-79
2022/08/18 05:07:52;;;;;;;25.50;19.92;;;;;;;23.16;62.89;100537.83;1643133;84;21120;-80
2022/08/18 05:10:39;;;;;;;25.27;19.17;;;;;;;23.24;62.95;100530.22;1653655;84;21165;-80
2022/08/18 05:13:25;;;;;;;21.05;18.95;;;;;;;23.35;62.96;100538.23;1654490;84;21533;-80
2022/08/18 05:16:10;;;;;;;26.00;19.65;;;;;;;23.44;63.02;100541.51;1645390;84;21065;-79
2022/08/18 05:18:56;;;;;;;25.62;19.62;;;;;;;23.54;63.03;100535.98;1650236;84;21099;-79
2022/08/18 05:21:41;;;;;;;31.93;20.55;;;;;;;23.65;63.08;100530.78;1646697;84;21062;-79
2022/08/18 05:24:27;;;;;;;28.27;20.43;;;;;;;23.80;63.14;100528.83;1648803;84;21141;-79
2022/08/18 05:27:13;;;;;;;22.62;20.40;;;;;;;24.02;63.21;100536.85;1647747;84;21671;-79
2022/08/18 05:29:58;;;;;;;23.60;20.92;;;;;;;24.27;63.19;100531.96;1656136;84;20961;-79
2022/08/18 05:32:46;;;;;;;26.52;19.87;;;;;;;24.58;63.16;100539.73;1655202;84;20974;-79
2022/08/18 05:35:39;;;;;;;25.27;18.10;;;;;;;24.90;63.12;100537.77;1648312;84;21479;-79
2022/08/18 05:39:00;;;;;;;21.96;18.54;;;;;;;25.25;63.06;100539.00;1544582;84;9999660;-79
2022/08/18 05:42:05;;;;;;;25.37;19.70;;;;;;;26.05;62.64;100547.05;1654896;83;21427;-79
2022/08/18 05:44:53;;;;;;;22.07;18.70;;;;;;;26.05;62.64;100547.05;1648389;84;20944;-79
2022/08/18 05:47:38;;;;;;;20.48;18.27;;;;;;;26.43;62.74;100540.92;1652025;84;21092;-79
2022/08/18 05:50:24;;;;;;;26.23;19.52;;;;;;;26.76;62.64;100543.84;1653330;84;21125;-79
2022/08/18 05:53:13;;;;;;;23.22;18.80;;;;;;;27.01;62.44;100543.48;1651402;84;21653;-79
2022/08/18 05:59:09;;;;;;;22.40;19.05;;;;;;;27.57;62.14;100542.95;1650799;84;21543;-79
2022/08/18 06:02:27;;;;;;;21.90;17.85;;;;;;;27.85;62.00;100548.02;1650177;85;21085;-79
2022/08/18 06:05:17;;;;;;;22.13;19.82;;;;;;;28.13;61.89;100543.20;1648546;85;21134;-79
2022/08/18 06:08:12;;;;;;;20.90;18.77;;;;;;;28.41;61.66;100540.73;1651081;85;21071;-79
2022/08/18 06:10:57;;;;;;;25.90;18.87;;;;;;;28.70;61.47;100538.84;1649596;85;21076;-79
2022/08/18 06:13:43;;;;;;;22.60;19.17;;;;;;;28.89;61.13;100536.17;1648477;85;21061;-79
2022/08/18 06:16:56;;;;;;;25.30;19.12;;;;;;;29.00;60.93;100539.16;1648315;85;21129;-79
2022/08/18 06:20:05;;;;;;;20.20;18.15;;;;;;;29.08;60.77;100539.77;1648944;85;22361;-79
2022/08/18 06:23:15;;;;;;;22.30;19.15;;;;;;;29.26;60.61;100540.16;1592304;83;5001404;-79
2022/08/18 06:26:25;;;;;;;27.48;16.90;;;;;;;29.50;60.47;100547.66;1691686;82;21029;-79
2022/08/18 06:29:50;;;;;;;20.77;17.42;;;;;;;29.80;60.26;100547.81;1691766;83;21085;-79
2022/08/18 06:32:53;;;;;;;;;;;;;;;30.11;59.99;100552.33;1694095;83;21062;-79
2022/08/18 06:35:49;;;;;;;19.00;17.02;;;;;;;30.55;59.32;100548.36;1692397;81;20347;-79
2022/08/18 06:39:17;;;;;;;18.48;16.60;;;;;;;31.02;59.50;100553.36;1696321;83;21152;-79
2022/08/18 06:42:04;;;;;;;19.17;17.20;;;;;;;31.39;59.08;100554.39;1693210;83;21546;-79
2022/08/18 06:45:06;;;;;;;19.95;16.40;;;;;;;31.65;58.67;100557.00;1690719;83;21587;-79
2022/08/18 06:48:08;;;;;;;19.92;16.23;;;;;;;31.96;58.40;100557.27;1689180;83;21017;-79
2022/08/18 06:51:00;;;;;;;20.37;15.88;;;;;;;32.31;58.05;100560.16;1693453;81;21049;-79
2022/08/18 06:53:59;;;;;;;22.85;15.90;;;;;;;32.48;57.58;100570.70;1689727;83;21101;-79
2022/08/18 06:56:49;;;;;;;21.12;15.93;;;;;;;32.58;57.14;100574.05;1689734;83;21068;-79
2022/08/18 06:59:38;;;;;;;18.32;16.48;;;;;;;32.58;56.89;100566.52;1687469;83;21509;-79
2022/08/18 07:02:34;;;;;;;19.75;17.60;;;;;;;32.65;56.49;100564.02;1700020;82;21070;-79
2022/08/18 07:05:25;;;;;;;18.32;15.80;;;;;;;32.72;56.03;100568.52;1705515;82;21655;-79
2022/08/18 07:08:21;;;;;;;21.48;17.90;;;;;;;32.76;55.89;100571.20;1705567;82;21000;-79
2022/08/18 07:11:24;;;;;;;22.52;16.07;;;;;;;32.99;55.46;100567.81;1697531;82;22299;-79
2022/08/18 07:14:21;;;;;;;17.27;14.80;;;;;;;33.27;55.02;100565.06;1700675;82;21104;-78
2022/08/18 07:17:11;;;;;;;18.35;14.58;;;;;;;33.91;54.60;100567.62;1696179;82;22564;-78
2022/08/18 07:20:01;;;;;;;20.92;15.08;;;;;;;34.49;54.00;100565.70;1702553;82;21041;-78
2022/08/18 07:22:59;;;;;;;18.67;14.23;;;;;;;34.89;53.48;100567.69;1704147;82;21540;-78
2022/08/18 07:25:48;;;;;;;14.70;13.28;;;;;;;35.26;52.96;100578.89;1703122;81;21041;-79
2022/08/18 07:28:38;;;;;;;16.77;13.70;;;;;;;35.48;52.43;100572.57;1700174;82;21072;-79
2022/08/18 07:31:41;;;;;;;17.40;14.40;;;;;;;35.67;51.93;100574.67;1699381;83;21087;-79
2022/08/18 07:34:35;;;;;;;25.00;13.65;;;;;;;35.73;51.33;100574.44;1700519;82;22194;-78
2022/08/18 07:37:44;;;;;;;20.57;13.35;;;;;;;35.49;51.04;100569.69;1702369;82;21085;-78
2022/08/18 07:40:52;;;;;;;21.07;13.40;;;;;;;35.39;50.65;100568.31;1702700;82;21092;-78
2022/08/18 07:43:52;;;;;;;19.70;13.08;;;;;;;35.32;50.36;100566.08;1692820;82;21089;-79
2022/08/18 07:47:00;;;;;;;15.50;13.85;;;;;;;35.13;49.90;100573.65;1691206;83;21313;-79
2022/08/18 07:49:47;;;;;;;17.40;12.82;;;;;;;35.01;49.31;100567.56;1692914;83;20989;-79
2022/08/18 07:52:43;;;;;;;15.13;12.55;;;;;;;34.97;49.18;100564.41;1693219;84;21088;-79
2022/08/18 07:55:34;;;;;;;15.03;11.85;;;;;;;35.09;49.00;100558.08;1694779;83;20974;-79
2022/08/18 07:58:30;;;;;;;22.13;13.48;;;;;;;35.16;48.58;100561.18;1691905;83;21015;-79
2022/08/18 08:01:42;;;;;;;15.28;12.05;;;;;;;35.30;48.36;100563.58;1693315;83;21054;-79
2022/08/18 08:04:41;;;;;;;15.65;11.95;;;;;;;35.47;47.91;100563.67;1696928;83;21020;-79
2022/08/18 08:07:37;;;;;;;18.62;13.93;;;;;;;35.55;47.73;100568.11;1693746;83;21059;-79
2022/08/18 08:10:44;;;;;;;13.85;12.55;;;;;;;35.72;47.31;100567.39;1689957;83;21052;-79
2022/08/18 08:13:52;;;;;;;11.78;10.20;;;;;;;36.28;46.71;100563.56;1691943;83;21056;-79
2022/08/18 08:17:04;;;;;;;21.73;13.58;;;;;;;36.86;46.22;100562.39;1688732;84;22146;-79
2022/08/18 08:20:23;;;;;;;12.85;10.45;;;;;;;37.84;45.38;100571.17;1688262;83;21595;-79
2022/08/18 08:23:31;;;;;;;12.33;8.90;;;;;;;38.56;44.71;100576.66;1684317;83;21322;-79
2022/08/18 08:26:54;;;;;;;13.50;8.73;;;;;;;39.11;44.22;100579.95;1686344;83;21041;-79
2022/08/18 08:29:53;;;;;;;9.78;8.80;;;;;;;39.70;43.67;100574.85;1687015;83;21559;-79
2022/08/18 08:33:10;;;;;;;13.20;9.00;;;;;;;40.27;42.87;100577.94;1687311;83;21373;-79
2022/08/18 08:36:12;;;;;;;16.65;9.80;;;;;;;40.64;42.22;100580.25;1689259;83;21064;-80
2022/08/18 08:39:12;;;;;;;9.53;8.58;;;;;;;40.77;41.83;100577.15;1689252;82;21056;-79
2022/08/18 08:42:17;;;;;;;13.08;9.15;;;;;;;40.85;41.17;100579.57;1686047;83;21056;-79
2022/08/18 08:45:06;;;;;;;9.75;7.62;;;;;;;40.57;40.89;100580.00;1687172;83;21056;-79
2022/08/18 08:48:05;;;;;;;8.50;7.62;;;;;;;40.48;40.28;100583.55;1687702;83;21041;-79
2022/08/18 08:50:58;;;;;;;7.78;7.10;;;;;;;40.07;39.87;100585.38;1685691;83;21319;-79
2022/08/18 08:53:51;;;;;;;11.83;7.67;;;;;;;39.91;39.52;100583.21;1684292;83;21081;-79
2022/08/18 08:56:42;;;;;;;8.60;7.72;;;;;;;39.88;39.18;100582.26;1686754;83;21561;-79
2022/08/18 08:59:27;;;;;;;9.55;7.22;;;;;;;39.23;38.56;100580.13;1684462;83;21561;-79
2022/08/18 09:02:35;;;;;;;11.25;7.62;;;;;;;38.36;38.46;100578.03;1690607;83;21068;-79
2022/08/18 09:05:32;;;;;;;11.35;7.45;;;;;;;37.67;38.30;100568.84;1695889;83;21041;-79
2022/08/18 09:08:50;;;;;;;10.05;7.42;;;;;;;37.05;38.34;100573.79;1697226;82;21116;-79
2022/08/18 09:11:58;;;;;;;9.73;8.05;;;;;;;36.47;38.18;100582.57;1694256;82;21080;-78
2022/08/18 09:15:07;;;;;;;12.10;8.58;;;;;;;35.83;38.24;100584.42;1696823;83;21128;-79
2022/08/18 09:18:09;;;;;;;12.05;9.08;;;;;;;35.54;38.16;100577.20;1697335;83;21723;-79
2022/08/18 09:21:05;;;;;;;9.30;8.40;;;;;;;35.16;38.01;100580.00;1679158;83;21056;-79
2022/08/18 09:23:56;;;;;;;14.75;8.53;;;;;;;34.65;38.11;100578.16;1694438;83;21085;-79
2022/08/18 09:27:05;;;;;;;14.40;8.18;;;;;;;34.42;38.17;100573.65;1694715;82;21037;-79
2022/08/18 09:30:01;;;;;;;20.65;9.00;;;;;;;34.37;38.24;100577.38;1647478;85;21076;-79
2022/08/18 09:33:14;;;;;;;10.60;8.05;;;;;;;34.23;37.99;100570.61;1621286;86;21596;-79
2022/08/18 09:36:35;;;;;;;10.72;9.28;;;;;;;33.99;38.03;100570.27;1622021;86;22206;-79
2022/08/18 09:42:43;;;;;;;11.50;8.73;;;;;;;33.63;38.08;100568.11;1639961;85;21133;-79
2022/08/18 09:45:48;;;;;;;10.05;8.25;;;;;;;33.43;38.17;100554.79;1638829;85;21230;-79
2022/08/18 09:48:36;;;;;;;9.30;8.48;;;;;;;33.36;38.28;100548.45;1638564;86;21066;-79
2022/08/18 09:51:37;;;;;;;12.47;9.43;;;;;;;33.30;38.21;100550.48;1639617;85;21121;-79
2022/08/18 09:54:26;;;;;;;12.23;8.60;;;;;;;33.21;38.33;100544.31;1619082;86;21581;-77
2022/08/18 09:57:23;;;;;;;14.58;8.65;;;;;;;33.19;38.49;100539.13;1696341;83;20977;-77
2022/08/18 10:00:14;;;;;;;15.93;9.45;;;;;;;33.27;38.54;100544.97;1699475;83;20933;-78
2022/08/18 10:03:12;;;;;;;8.25;7.22;;;;;;;33.30;38.58;100541.94;1698124;83;20950;-78
2022/08/18 10:06:09;;;;;;;10.48;7.53;;;;;;;33.31;38.53;100534.73;1651426;85;21042;-78
2022/08/18 10:09:24;;;;;;;9.20;8.28;;;;;;;33.26;38.48;100531.73;1658962;85;21053;-79
2022/08/18 10:12:44;;;;;;;10.33;8.80;;;;;;;33.34;38.55;100529.02;1603910;87;21220;-79
2022/08/18 10:16:06;;;;;;;8.68;7.55;;;;;;;33.36;38.49;100526.50;1606947;87;21101;-79
2022/08/18 10:19:18;;;;;;;8.03;7.08;;;;;;;33.34;38.47;100518.30;1606247;87;21148;-78
2022/08/18 10:22:07;;;;;;;14.68;7.37;;;;;;;33.33;38.64;100516.13;1648131;85;22270;-79
2022/08/18 10:24:57;;;;;;;9.20;7.85;;;;;;;33.46;38.58;100516.91;1651836;85;21093;-79
2022/08/18 10:27:48;;;;;;;9.85;7.22;;;;;;;33.49;38.49;100510.69;1627386;86;21101;-79
2022/08/18 10:30:38;;;;;;;8.43;6.95;;;;;;;33.47;38.37;100514.05;1607962;87;22036;-79
2022/08/18 10:34:02;;;;;;;10.63;6.92;;;;;;;33.38;38.40;100509.73;1609744;86;21109;-79
2022/08/18 10:36:54;;;;;;;8.58;7.53;;;;;;;33.36;38.34;100508.23;1607741;87;21110;-78
2022/08/18 10:39:44;;;;;;;12.47;7.20;;;;;;;33.31;38.39;100511.95;1608539;87;21125;-78
2022/08/18 10:42:59;;;;;;;7.53;6.58;;;;;;;33.34;38.40;100512.94;1653142;85;21076;-79
2022/08/18 10:45:51;;;;;;;12.60;6.72;;;;;;;33.35;38.34;100506.56;1625566;86;21072;-78
2022/08/18 10:48:37;;;;;;;12.53;7.33;;;;;;;33.42;38.33;100510.22;1624875;86;21113;-79
2022/08/18 10:51:35;;;;;;;8.08;7.28;;;;;;;33.38;38.15;100507.56;1629999;86;21104;-78
2022/08/18 10:54:50;;;;;;;7.10;6.40;;;;;;;33.36;38.16;100506.39;1623445;86;21140;-78
2022/08/18 10:58:29;;;;;;;7.25;6.50;;;;;;;33.31;38.04;100498.55;1622518;86;21096;-78
2022/08/18 11:01:28;;;;;;;10.95;6.17;;;;;;;33.17;37.90;100494.24;1626853;86;21132;-78
2022/08/18 11:04:34;;;;;;;10.98;5.95;;;;;;;33.05;37.90;100487.59;1625990;86;21097;-78
2022/08/18 11:07:25;;;;;;;7.70;6.53;;;;;;;33.03;37.89;100480.23;1626984;86;21140;-78
2022/08/18 11:10:42;;;;;;;7.40;6.35;;;;;;;33.09;37.77;100480.04;1626677;86;21779;-78
2022/08/18 11:13:50;;;;;;;10.15;6.42;;;;;;;33.05;37.75;100473.36;1626924;86;21187;-78
2022/08/18 11:17:02;;;;;;;7.17;6.12;;;;;;;32.98;37.65;100462.49;1522893;91;21140;-78
2022/08/18 11:19:47;;;;;;;7.58;6.78;;;;;;;33.01;37.68;100452.77;1690965;83;21049;-78
2022/08/18 11:22:35;;;;;;;11.87;6.70;;;;;;;33.00;37.53;100463.66;1691540;83;21072;-78
2022/08/18 11:25:34;;;;;;;8.63;5.85;;;;;;;32.97;37.35;100466.19;1697522;83;20953;-78
2022/08/18 11:28:22;;;;;;;6.35;5.80;;;;;;;32.92;37.22;100468.55;1694355;83;20967;-78
2022/08/18 11:31:08;;;;;;;7.08;5.67;;;;;;;32.85;37.14;100464.37;1694614;81;21332;-78
2022/08/18 11:33:53;;;;;;;;;;;;;;;32.81;37.03;100460.37;1698319;83;20961;-78
2022/08/18 11:36:38;;;;;;;7.93;5.80;;;;;;;32.75;36.84;100454.39;1698023;81;20132;-78
2022/08/18 11:39:23;;;;;;;8.10;6.92;;;;;;;32.70;37.02;100450.02;1696092;83;21396;-78
2022/08/18 11:42:09;;;;;;;5.83;5.42;;;;;;;32.67;36.90;100459.74;1694552;83;20907;-78
2022/08/18 11:45:04;;;;;;;8.20;5.47;;;;;;;32.64;36.82;100452.05;1695526;83;20931;-78
2022/08/18 11:48:27;;;;;;;5.87;5.37;;;;;;;32.58;36.52;100444.70;1693672;83;20914;-78
2022/08/18 11:51:20;;;;;;;6.67;5.25;;;;;;;32.53;36.30;100449.73;1696099;83;20954;-78
2022/08/18 11:54:21;;;;;;;5.65;4.65;;;;;;;32.45;36.34;100445.23;1694649;83;20930;-78
2022/08/18 11:57:44;;;;;;;8.45;5.10;;;;;;;32.44;36.24;100440.87;1694336;83;21572;-78
2022/08/18 12:00:52;;;;;;;7.22;5.58;;;;;;;32.42;36.24;100440.21;1680150;83;20914;-78
2022/08/18 12:03:47;;;;;;;7.40;5.70;;;;;;;32.41;35.99;100437.70;1692441;83;21509;-78
2022/08/18 12:06:34;;;;;;;6.28;5.62;;;;;;;32.41;36.08;100437.20;1689627;83;20979;-78
2022/08/18 12:09:39;;;;;;;6.67;5.08;;;;;;;32.48;36.07;100429.33;1686815;83;21487;-78
2022/08/18 12:12:32;;;;;;;6.58;5.65;;;;;;;32.53;35.97;100418.94;1681378;83;21496;-78
2022/08/18 12:15:31;;;;;;;6.75;5.53;;;;;;;32.63;36.06;100416.07;1681103;83;21402;-78
2022/08/18 12:18:17;;;;;;;8.80;6.45;;;;;;;32.77;36.03;100417.53;1681444;83;20929;-78
2022/08/18 12:21:01;;;;;;;7.33;6.37;;;;;;;32.89;35.88;100413.97;1679012;82;21415;-78
2022/08/18 12:23:48;;;;;;;6.42;5.87;;;;;;;32.87;35.83;100419.50;1678918;83;20971;-78
2022/08/18 12:26:33;;;;;;;6.80;5.65;;;;;;;32.87;35.85;100415.99;1682559;83;22177;-78
2022/08/18 12:29:19;;;;;;;9.53;6.08;;;;;;;32.89;35.88;100412.13;1686110;83;21023;-78
2022/08/18 12:32:05;;;;;;;8.65;5.62;;;;;;;32.92;35.79;100411.45;1683186;83;20979;-78
2022/08/18 12:34:50;;;;;;;8.90;6.15;;;;;;;32.94;35.73;100412.12;1682147;83;21155;-78
2022/08/18 12:37:36;;;;;;;5.75;5.00;;;;;;;32.92;35.77;100405.59;1679615;83;21074;-77
2022/08/18 12:40:22;;;;;;;7.75;5.78;;;;;;;32.97;35.76;100401.89;1683742;83;21054;-77
2022/08/18 12:43:07;;;;;;;6.90;5.45;;;;;;;33.05;35.74;100401.84;1680299;81;21055;-77
2022/08/18 12:45:52;;;;;;;8.03;5.53;;;;;;;33.15;35.74;100403.81;1681611;83;21051;-77
2022/08/18 12:48:38;;;;;;;9.08;5.60;;;;;;;33.25;35.67;100398.23;1678018;83;21074;-77
2022/08/18 12:51:23;;;;;;;7.03;6.42;;;;;;;33.30;35.57;100397.70;1680495;83;21098;-77
2022/08/18 12:54:08;;;;;;;11.35;6.25;;;;;;;33.21;35.46;100396.41;1677009;83;21528;-77
2022/08/18 12:56:56;;;;;;;11.40;5.90;;;;;;;33.18;35.62;100403.96;1677619;83;21110;-77
2022/08/18 12:59:41;;;;;;;10.38;6.37;;;;;;;33.14;35.61;100404.81;1676018;83;21550;-75
2022/08/18 13:02:26;;;;;;;7.10;5.85;;;;;;;33.06;35.52;100395.48;1684033;83;21095;-75
2022/08/18 13:05:11;;;;;;;6.65;6.10;;;;;;;32.97;35.44;100397.87;1686169;83;21209;-75
2022/08/18 13:08:00;;;;;;;6.78;6.10;;;;;;;32.88;35.42;100402.93;1643825;85;21097;-76
2022/08/18 13:10:46;;;;;;;10.25;6.60;;;;;;;32.79;35.51;100394.09;1637508;86;21101;-75
2022/08/18 13:13:32;;;;;;;7.12;6.12;;;;;;;32.81;35.71;100401.95;1619153;86;21099;-75
2022/08/18 13:16:17;;;;;;;8.70;6.80;;;;;;;32.85;35.70;100401.94;1638622;85;21081;-75
2022/08/18 13:19:03;;;;;;;11.70;7.55;;;;;;;32.78;35.61;100406.31;1637563;85;21128;-75
2022/08/18 13:21:48;;;;;;;9.13;6.15;;;;;;;32.64;35.74;100407.87;1637732;86;21772;-75
2022/08/18 13:24:33;;;;;;;7.47;6.45;;;;;;;32.61;35.81;100410.05;1638952;84;21111;-75